sensor_id;sensor_type;location;lat;lon;timestamp;P1;durP1;ratioP1;P2;durP2;ratioP2
62798;SDS011;48842;51.046;13.796;2022-08-01T00:02:26;3.27;;;2.30;;
62798;SDS011;48842;51.046;13.796;2022-08-01T00:04:53;2.90;;;2.60;;
62798;SDS011;48842;51.046;13.796;2022-08-01T00:07:19;2.67;;;2.47;;
62798;SDS011;48842;51.046;13.796;2022-08-01T00:09:44;3.83;;;2.20;;
62798;SDS011;48842;51.046;13.796;2022-08-01T00:12:09;2.93;;;2.60;;
62798;SDS011;48842;51.046;13.796;2022-08-01T00:14:35;10.13;;;2.47;;
62798;SDS011;48842;51.046;13.796;2022-08-01T00:17:00;3.60;;;2.77;;
62798;SDS011;48842;51.046;13.796;2022-08-01T00:19:25;3.17;;;2.97;;
62798;SDS011;48842;51.046;13.796;2022-08-01T00:21:51;4.90;;;2.73;;
62798;SDS011;48842;51.046;13.796;2022-08-01T00:24:16;2.77;;;2.63;;
62798;SDS011;48842;51.046;13.796;2022-08-01T00:26:41;5.57;;;2.50;;
62798;SDS011;48842;51.046;13.796;2022-08-01T00:29:06;3.50;;;2.23;;
62798;SDS011;48842;51.046;13.796;2022-08-01T00:31:32;4.33;;;2.33;;
62798;SDS011;48842;51.046;13.796;2022-08-01T00:33:57;4.27;;;2.43;;
62798;SDS011;48842;51.046;13.796;2022-08-01T00:36:22;3.67;;;2.30;;
62798;SDS011;48842;51.046;13.796;2022-08-01T00:38:47;2.90;;;2.70;;
62798;SDS011;48842;51.046;13.796;2022-08-01T00:41:13;3.70;;;2.33;;
62798;SDS011;48842;51.046;13.796;2022-08-01T00:43:38;2.80;;;2.20;;
62798;SDS011;48842;51.046;13.796;2022-08-01T00:46:03;2.57;;;2.37;;
62798;SDS011;48842;51.046;13.796;2022-08-01T00:48:28;2.50;;;2.30;;
62798;SDS011;48842;51.046;13.796;2022-08-01T00:50:53;3.90;;;2.80;;
62798;SDS011;48842;51.046;13.796;2022-08-01T00:53:19;3.77;;;2.47;;
62798;SDS011;48842;51.046;13.796;2022-08-01T00:55:44;3.33;;;3.00;;
62798;SDS011;48842;51.046;13.796;2022-08-01T00:58:11;3.00;;;2.70;;
62798;SDS011;48842;51.046;13.796;2022-08-01T01:00:36;2.70;;;2.50;;
62798;SDS011;48842;51.046;13.796;2022-08-01T01:03:02;3.20;;;2.83;;
62798;SDS011;48842;51.046;13.796;2022-08-01T01:05:27;2.57;;;2.37;;
62798;SDS011;48842;51.046;13.796;2022-08-01T01:08:02;3.43;;;2.47;;
62798;SDS011;48842;51.046;13.796;2022-08-01T01:10:37;4.00;;;2.73;;
62798;SDS011;48842;51.046;13.796;2022-08-01T01:13:13;4.97;;;2.80;;
62798;SDS011;48842;51.046;13.796;2022-08-01T01:15:49;4.97;;;3.20;;
62798;SDS011;48842;51.046;13.796;2022-08-01T01:18:21;5.50;;;2.63;;
62798;SDS011;48842;51.046;13.796;2022-08-01T01:21:07;3.30;;;3.00;;
62798;SDS011;48842;51.046;13.796;2022-08-01T01:29:44;3.20;;;2.90;;
62798;SDS011;48842;51.046;13.796;2022-08-01T01:32:14;3.43;;;3.23;;
62798;SDS011;48842;51.046;13.796;2022-08-01T01:34:43;4.30;;;3.90;;
62798;SDS011;48842;51.046;13.796;2022-08-01T01:37:12;4.77;;;2.97;;
62798;SDS011;48842;51.046;13.796;2022-08-01T01:39:40;3.30;;;3.10;;
62798;SDS011;48842;51.046;13.796;2022-08-01T01:42:07;5.40;;;3.10;;
62798;SDS011;48842;51.046;13.796;2022-08-01T01:44:33;3.27;;;2.87;;
62798;SDS011;48842;51.046;13.796;2022-08-01T01:47:00;5.10;;;3.10;;
62798;SDS011;48842;51.046;13.796;2022-08-01T01:49:26;3.13;;;2.83;;
62798;SDS011;48842;51.046;13.796;2022-08-01T01:51:53;3.33;;;2.77;;
62798;SDS011;48842;51.046;13.796;2022-08-01T01:54:20;6.30;;;3.13;;
62798;SDS011;48842;51.046;13.796;2022-08-01T01:56:48;3.30;;;3.00;;
62798;SDS011;48842;51.046;13.796;2022-08-01T01:59:19;3.33;;;3.07;;
62798;SDS011;48842;51.046;13.796;2022-08-01T02:01:49;3.00;;;2.70;;
62798;SDS011;48842;51.046;13.796;2022-08-01T02:04:17;3.70;;;2.63;;
62798;SDS011;48842;51.046;13.796;2022-08-01T02:06:45;3.13;;;2.70;;
62798;SDS011;48842;51.046;13.796;2022-08-01T02:09:11;4.70;;;2.83;;
62798;SDS011;48842;51.046;13.796;2022-08-01T02:11:41;4.63;;;3.60;;
62798;SDS011;48842;51.046;13.796;2022-08-01T02:14:07;3.03;;;2.80;;
62798;SDS011;48842;51.046;13.796;2022-08-01T02:16:35;2.80;;;2.60;;
62798;SDS011;48842;51.046;13.796;2022-08-01T02:19:04;3.23;;;3.00;;
62798;SDS011;48842;51.046;13.796;2022-08-01T02:21:31;4.20;;;3.03;;
62798;SDS011;48842;51.046;13.796;2022-08-01T02:26:56;4.90;;;3.40;;
62798;SDS011;48842;51.046;13.796;2022-08-01T02:32:33;8.07;;;3.20;;
62798;SDS011;48842;51.046;13.796;2022-08-01T02:35:03;4.20;;;2.70;;
62798;SDS011;48842;51.046;13.796;2022-08-01T02:37:33;3.13;;;2.90;;
62798;SDS011;48842;51.046;13.796;2022-08-01T02:40:01;3.30;;;3.10;;
62798;SDS011;48842;51.046;13.796;2022-08-01T02:42:27;2.93;;;2.70;;
62798;SDS011;48842;51.046;13.796;2022-08-01T02:44:54;5.07;;;3.20;;
62798;SDS011;48842;51.046;13.796;2022-08-01T02:47:21;3.37;;;3.17;;
62798;SDS011;48842;51.046;13.796;2022-08-01T02:49:48;8.60;;;2.43;;
62798;SDS011;48842;51.046;13.796;2022-08-01T02:52:17;3.30;;;3.00;;
62798;SDS011;48842;51.046;13.796;2022-08-01T02:54:44;9.93;;;3.50;;
62798;SDS011;48842;51.046;13.796;2022-08-01T02:57:12;6.47;;;3.53;;
62798;SDS011;48842;51.046;13.796;2022-08-01T02:59:39;3.17;;;2.90;;
62798;SDS011;48842;51.046;13.796;2022-08-01T03:02:07;3.93;;;3.10;;
62798;SDS011;48842;51.046;13.796;2022-08-01T03:04:34;6.10;;;3.60;;
62798;SDS011;48842;51.046;13.796;2022-08-01T03:07:03;3.23;;;3.03;;
62798;SDS011;48842;51.046;13.796;2022-08-01T03:09:32;7.00;;;3.20;;
62798;SDS011;48842;51.046;13.796;2022-08-01T03:12:02;3.83;;;3.60;;
62798;SDS011;48842;51.046;13.796;2022-08-01T03:14:31;7.60;;;3.67;;
62798;SDS011;48842;51.046;13.796;2022-08-01T03:17:00;7.83;;;3.40;;
62798;SDS011;48842;51.046;13.796;2022-08-01T03:19:27;3.87;;;3.60;;
62798;SDS011;48842;51.046;13.796;2022-08-01T03:21:53;3.70;;;3.10;;
62798;SDS011;48842;51.046;13.796;2022-08-01T03:24:23;3.17;;;2.97;;
62798;SDS011;48842;51.046;13.796;2022-08-01T03:26:50;7.90;;;3.60;;
62798;SDS011;48842;51.046;13.796;2022-08-01T03:29:18;4.93;;;3.07;;
62798;SDS011;48842;51.046;13.796;2022-08-01T03:31:46;11.13;;;3.33;;
62798;SDS011;48842;51.046;13.796;2022-08-01T03:34:13;3.23;;;2.93;;
62798;SDS011;48842;51.046;13.796;2022-08-01T03:36:43;8.33;;;3.30;;
62798;SDS011;48842;51.046;13.796;2022-08-01T03:39:11;4.00;;;3.47;;
62798;SDS011;48842;51.046;13.796;2022-08-01T03:41:39;3.57;;;3.20;;
62798;SDS011;48842;51.046;13.796;2022-08-01T03:44:10;7.87;;;3.50;;
62798;SDS011;48842;51.046;13.796;2022-08-01T03:46:48;3.63;;;3.33;;
62798;SDS011;48842;51.046;13.796;2022-08-01T03:49:26;3.30;;;3.10;;
62798;SDS011;48842;51.046;13.796;2022-08-01T03:51:55;3.40;;;3.10;;
62798;SDS011;48842;51.046;13.796;2022-08-01T03:54:23;5.33;;;3.47;;
62798;SDS011;48842;51.046;13.796;2022-08-01T03:56:51;3.93;;;3.17;;
62798;SDS011;48842;51.046;13.796;2022-08-01T03:59:17;3.40;;;3.10;;
62798;SDS011;48842;51.046;13.796;2022-08-01T04:01:43;3.70;;;3.40;;
62798;SDS011;48842;51.046;13.796;2022-08-01T04:04:10;5.53;;;3.00;;
62798;SDS011;48842;51.046;13.796;2022-08-01T04:06:39;6.90;;;3.47;;
62798;SDS011;48842;51.046;13.796;2022-08-01T04:09:09;12.00;;;3.00;;
62798;SDS011;48842;51.046;13.796;2022-08-01T04:11:35;3.63;;;3.00;;
62798;SDS011;48842;51.046;13.796;2022-08-01T04:14:00;3.17;;;2.90;;
62798;SDS011;48842;51.046;13.796;2022-08-01T04:16:26;5.97;;;4.00;;
62798;SDS011;48842;51.046;13.796;2022-08-01T04:18:51;3.70;;;3.40;;
62798;SDS011;48842;51.046;13.796;2022-08-01T04:21:17;5.03;;;3.23;;
62798;SDS011;48842;51.046;13.796;2022-08-01T04:23:45;3.77;;;3.40;;
62798;SDS011;48842;51.046;13.796;2022-08-01T04:26:12;4.97;;;3.70;;
62798;SDS011;48842;51.046;13.796;2022-08-01T04:28:39;15.00;;;3.70;;
62798;SDS011;48842;51.046;13.796;2022-08-01T04:31:07;4.50;;;3.20;;
62798;SDS011;48842;51.046;13.796;2022-08-01T04:33:34;5.13;;;2.77;;
62798;SDS011;48842;51.046;13.796;2022-08-01T04:36:01;3.73;;;3.30;;
62798;SDS011;48842;51.046;13.796;2022-08-01T04:38:27;3.40;;;3.20;;
62798;SDS011;48842;51.046;13.796;2022-08-01T04:40:54;5.83;;;3.03;;
62798;SDS011;48842;51.046;13.796;2022-08-01T04:43:19;3.37;;;3.07;;
62798;SDS011;48842;51.046;13.796;2022-08-01T04:45:46;10.03;;;3.40;;
62798;SDS011;48842;51.046;13.796;2022-08-01T04:48:12;7.33;;;2.73;;
62798;SDS011;48842;51.046;13.796;2022-08-01T04:50:38;3.10;;;2.90;;
62798;SDS011;48842;51.046;13.796;2022-08-01T04:53:08;4.00;;;3.40;;
62798;SDS011;48842;51.046;13.796;2022-08-01T04:55:38;3.87;;;3.47;;
62798;SDS011;48842;51.046;13.796;2022-08-01T04:58:03;4.30;;;3.00;;
62798;SDS011;48842;51.046;13.796;2022-08-01T05:00:28;5.03;;;3.10;;
62798;SDS011;48842;51.046;13.796;2022-08-01T05:02:54;8.00;;;3.20;;
62798;SDS011;48842;51.046;13.796;2022-08-01T05:05:19;4.00;;;3.60;;
62798;SDS011;48842;51.046;13.796;2022-08-01T05:07:45;5.77;;;3.80;;
62798;SDS011;48842;51.046;13.796;2022-08-01T05:10:11;4.20;;;3.67;;
62798;SDS011;48842;51.046;13.796;2022-08-01T05:12:36;3.93;;;3.03;;
62798;SDS011;48842;51.046;13.796;2022-08-01T05:15:01;3.53;;;3.23;;
62798;SDS011;48842;51.046;13.796;2022-08-01T05:17:27;4.60;;;3.20;;
62798;SDS011;48842;51.046;13.796;2022-08-01T05:19:52;3.67;;;3.37;;
62798;SDS011;48842;51.046;13.796;2022-08-01T05:22:17;5.87;;;3.50;;
62798;SDS011;48842;51.046;13.796;2022-08-01T05:24:43;6.40;;;3.30;;
62798;SDS011;48842;51.046;13.796;2022-08-01T05:27:08;7.60;;;3.30;;
62798;SDS011;48842;51.046;13.796;2022-08-01T05:29:34;5.10;;;4.30;;
62798;SDS011;48842;51.046;13.796;2022-08-01T05:32:00;4.13;;;3.63;;
62798;SDS011;48842;51.046;13.796;2022-08-01T05:34:25;3.50;;;2.93;;
62798;SDS011;48842;51.046;13.796;2022-08-01T05:36:51;3.53;;;3.23;;
62798;SDS011;48842;51.046;13.796;2022-08-01T05:39:17;4.00;;;3.80;;
62798;SDS011;48842;51.046;13.796;2022-08-01T05:41:42;3.17;;;2.90;;
62798;SDS011;48842;51.046;13.796;2022-08-01T05:44:07;3.50;;;3.13;;
62798;SDS011;48842;51.046;13.796;2022-08-01T05:46:33;3.43;;;3.13;;
62798;SDS011;48842;51.046;13.796;2022-08-01T05:49:00;4.87;;;3.20;;
62798;SDS011;48842;51.046;13.796;2022-08-01T05:51:25;9.43;;;3.60;;
62798;SDS011;48842;51.046;13.796;2022-08-01T05:53:51;3.73;;;3.40;;
62798;SDS011;48842;51.046;13.796;2022-08-01T05:56:17;3.43;;;3.10;;
62798;SDS011;48842;51.046;13.796;2022-08-01T05:58:42;7.50;;;3.50;;
62798;SDS011;48842;51.046;13.796;2022-08-01T06:01:08;5.20;;;3.40;;
62798;SDS011;48842;51.046;13.796;2022-08-01T06:03:33;4.33;;;2.97;;
62798;SDS011;48842;51.046;13.796;2022-08-01T06:05:59;9.30;;;3.20;;
62798;SDS011;48842;51.046;13.796;2022-08-01T06:08:25;3.43;;;3.17;;
62798;SDS011;48842;51.046;13.796;2022-08-01T06:10:51;3.53;;;3.17;;
62798;SDS011;48842;51.046;13.796;2022-08-01T06:13:16;4.87;;;3.20;;
62798;SDS011;48842;51.046;13.796;2022-08-01T06:15:42;3.87;;;3.57;;
62798;SDS011;48842;51.046;13.796;2022-08-01T06:18:07;3.43;;;2.90;;
62798;SDS011;48842;51.046;13.796;2022-08-01T06:20:32;2.53;;;2.33;;
62798;SDS011;48842;51.046;13.796;2022-08-01T06:22:57;3.23;;;2.93;;
62798;SDS011;48842;51.046;13.796;2022-08-01T06:25:23;10.60;;;3.00;;
62798;SDS011;48842;51.046;13.796;2022-08-01T06:27:48;6.90;;;3.20;;
62798;SDS011;48842;51.046;13.796;2022-08-01T06:30:14;3.30;;;3.10;;
62798;SDS011;48842;51.046;13.796;2022-08-01T06:32:40;3.13;;;2.70;;
62798;SDS011;48842;51.046;13.796;2022-08-01T06:35:05;4.00;;;3.60;;
62798;SDS011;48842;51.046;13.796;2022-08-01T06:37:31;5.40;;;3.00;;
62798;SDS011;48842;51.046;13.796;2022-08-01T06:40:00;3.07;;;2.70;;
62798;SDS011;48842;51.046;13.796;2022-08-01T06:42:27;7.23;;;3.17;;
62798;SDS011;48842;51.046;13.796;2022-08-01T06:44:52;3.33;;;2.73;;
62798;SDS011;48842;51.046;13.796;2022-08-01T06:47:17;5.03;;;2.73;;
62798;SDS011;48842;51.046;13.796;2022-08-01T06:49:42;2.93;;;2.70;;
62798;SDS011;48842;51.046;13.796;2022-08-01T06:52:08;3.40;;;3.10;;
62798;SDS011;48842;51.046;13.796;2022-08-01T06:54:33;3.60;;;2.90;;
62798;SDS011;48842;51.046;13.796;2022-08-01T06:56:58;5.40;;;3.20;;
62798;SDS011;48842;51.046;13.796;2022-08-01T06:59:23;4.53;;;3.30;;
62798;SDS011;48842;51.046;13.796;2022-08-01T07:01:49;3.13;;;2.93;;
62798;SDS011;48842;51.046;13.796;2022-08-01T07:04:14;5.93;;;3.90;;
62798;SDS011;48842;51.046;13.796;2022-08-01T07:06:40;5.87;;;3.23;;
62798;SDS011;48842;51.046;13.796;2022-08-01T07:09:05;5.60;;;3.40;;
62798;SDS011;48842;51.046;13.796;2022-08-01T07:11:30;3.90;;;3.60;;
62798;SDS011;48842;51.046;13.796;2022-08-01T07:13:55;6.20;;;4.57;;
62798;SDS011;48842;51.046;13.796;2022-08-01T07:16:21;7.00;;;4.70;;
62798;SDS011;48842;51.046;13.796;2022-08-01T07:18:47;4.40;;;3.83;;
62798;SDS011;48842;51.046;13.796;2022-08-01T07:21:12;4.37;;;4.07;;
62798;SDS011;48842;51.046;13.796;2022-08-01T07:23:37;4.20;;;3.90;;
62798;SDS011;48842;51.046;13.796;2022-08-01T07:26:03;4.03;;;3.73;;
62798;SDS011;48842;51.046;13.796;2022-08-01T07:28:29;3.87;;;3.60;;
62798;SDS011;48842;51.046;13.796;2022-08-01T07:30:55;4.20;;;4.00;;
62798;SDS011;48842;51.046;13.796;2022-08-01T07:33:21;4.53;;;4.23;;
62798;SDS011;48842;51.046;13.796;2022-08-01T07:35:47;5.37;;;4.87;;
62798;SDS011;48842;51.046;13.796;2022-08-01T07:38:13;7.47;;;4.53;;
62798;SDS011;48842;51.046;13.796;2022-08-01T07:40:40;4.30;;;4.10;;
62798;SDS011;48842;51.046;13.796;2022-08-01T07:43:05;5.17;;;4.73;;
62798;SDS011;48842;51.046;13.796;2022-08-01T07:45:30;5.80;;;5.00;;
62798;SDS011;48842;51.046;13.796;2022-08-01T07:47:55;5.43;;;4.93;;
62798;SDS011;48842;51.046;13.796;2022-08-01T07:50:21;4.97;;;4.47;;
62798;SDS011;48842;51.046;13.796;2022-08-01T07:52:46;5.30;;;4.80;;
62798;SDS011;48842;51.046;13.796;2022-08-01T07:55:11;4.97;;;4.47;;
62798;SDS011;48842;51.046;13.796;2022-08-01T07:57:37;6.63;;;4.90;;
62798;SDS011;48842;51.046;13.796;2022-08-01T08:00:03;6.53;;;5.30;;
62798;SDS011;48842;51.046;13.796;2022-08-01T08:02:30;4.40;;;4.20;;
62798;SDS011;48842;51.046;13.796;2022-08-01T08:04:56;3.97;;;3.77;;
62798;SDS011;48842;51.046;13.796;2022-08-01T08:07:21;4.20;;;3.90;;
62798;SDS011;48842;51.046;13.796;2022-08-01T08:09:46;4.07;;;3.77;;
62798;SDS011;48842;51.046;13.796;2022-08-01T08:12:11;4.60;;;4.20;;
62798;SDS011;48842;51.046;13.796;2022-08-01T08:14:37;5.87;;;4.13;;
62798;SDS011;48842;51.046;13.796;2022-08-01T08:17:02;4.23;;;3.93;;
62798;SDS011;48842;51.046;13.796;2022-08-01T08:19:28;4.03;;;3.60;;
62798;SDS011;48842;51.046;13.796;2022-08-01T08:21:53;3.83;;;3.63;;
62798;SDS011;48842;51.046;13.796;2022-08-01T08:24:19;3.27;;;3.00;;
62798;SDS011;48842;51.046;13.796;2022-08-01T08:26:44;3.03;;;2.83;;
62798;SDS011;48842;51.046;13.796;2022-08-01T08:29:10;3.40;;;3.13;;
62798;SDS011;48842;51.046;13.796;2022-08-01T08:31:35;5.20;;;2.87;;
62798;SDS011;48842;51.046;13.796;2022-08-01T08:34:00;5.23;;;3.03;;
62798;SDS011;48842;51.046;13.796;2022-08-01T08:36:26;4.67;;;2.70;;
62798;SDS011;48842;51.046;13.796;2022-08-01T08:38:51;5.00;;;3.20;;
62798;SDS011;48842;51.046;13.796;2022-08-01T08:41:16;3.00;;;2.63;;
62798;SDS011;48842;51.046;13.796;2022-08-01T08:43:42;3.10;;;2.90;;
62798;SDS011;48842;51.046;13.796;2022-08-01T08:46:07;3.30;;;3.10;;
62798;SDS011;48842;51.046;13.796;2022-08-01T08:48:33;2.90;;;2.80;;
62798;SDS011;48842;51.046;13.796;2022-08-01T08:50:59;4.13;;;2.73;;
62798;SDS011;48842;51.046;13.796;2022-08-01T08:53:26;2.90;;;2.50;;
62798;SDS011;48842;51.046;13.796;2022-08-01T08:55:52;3.00;;;2.20;;
62798;SDS011;48842;51.046;13.796;2022-08-01T08:58:18;2.63;;;2.43;;
62798;SDS011;48842;51.046;13.796;2022-08-01T09:00:44;2.43;;;2.33;;
62798;SDS011;48842;51.046;13.796;2022-08-01T09:03:10;4.67;;;2.47;;
62798;SDS011;48842;51.046;13.796;2022-08-01T09:05:35;2.60;;;2.40;;
62798;SDS011;48842;51.046;13.796;2022-08-01T09:08:00;2.60;;;2.50;;
62798;SDS011;48842;51.046;13.796;2022-08-01T09:10:25;4.20;;;2.30;;
62798;SDS011;48842;51.046;13.796;2022-08-01T09:13:04;1.80;;;1.70;;
62798;SDS011;48842;51.046;13.796;2022-08-01T09:15:38;1.73;;;1.63;;
62798;SDS011;48842;51.046;13.796;2022-08-01T09:23:31;2.80;;;1.80;;
62798;SDS011;48842;51.046;13.796;2022-08-01T09:25:57;4.10;;;1.60;;
62798;SDS011;48842;51.046;13.796;2022-08-01T09:28:26;2.27;;;2.07;;
62798;SDS011;48842;51.046;13.796;2022-08-01T09:30:53;4.30;;;2.10;;
62798;SDS011;48842;51.046;13.796;2022-08-01T09:33:20;2.43;;;2.33;;
62798;SDS011;48842;51.046;13.796;2022-08-01T09:35:46;2.80;;;2.50;;
62798;SDS011;48842;51.046;13.796;2022-08-01T09:38:20;3.93;;;2.50;;
62798;SDS011;48842;51.046;13.796;2022-08-01T09:40:57;2.97;;;2.77;;
62798;SDS011;48842;51.046;13.796;2022-08-01T09:43:24;7.00;;;2.43;;
62798;SDS011;48842;51.046;13.796;2022-08-01T09:45:53;6.83;;;2.57;;
62798;SDS011;48842;51.046;13.796;2022-08-01T09:48:20;2.63;;;2.43;;
62798;SDS011;48842;51.046;13.796;2022-08-01T09:50:46;2.13;;;2.03;;
62798;SDS011;48842;51.046;13.796;2022-08-01T09:53:16;2.17;;;2.07;;
62798;SDS011;48842;51.046;13.796;2022-08-01T09:55:42;4.07;;;2.17;;
62798;SDS011;48842;51.046;13.796;2022-08-01T09:58:09;2.13;;;1.80;;
62798;SDS011;48842;51.046;13.796;2022-08-01T10:00:37;2.00;;;1.90;;
62798;SDS011;48842;51.046;13.796;2022-08-01T10:03:22;2.23;;;2.10;;
62798;SDS011;48842;51.046;13.796;2022-08-01T10:05:51;1.77;;;1.67;;
62798;SDS011;48842;51.046;13.796;2022-08-01T10:08:18;1.80;;;1.70;;
62798;SDS011;48842;51.046;13.796;2022-08-01T10:13:31;1.90;;;1.30;;
62798;SDS011;48842;51.046;13.796;2022-08-01T10:15:57;2.80;;;1.50;;
62798;SDS011;48842;51.046;13.796;2022-08-01T10:18:22;1.60;;;1.50;;
62798;SDS011;48842;51.046;13.796;2022-08-01T10:20:47;5.40;;;1.40;;
62798;SDS011;48842;51.046;13.796;2022-08-01T10:23:13;3.07;;;1.50;;
62798;SDS011;48842;51.046;13.796;2022-08-01T10:25:40;2.07;;;1.37;;
62798;SDS011;48842;51.046;13.796;2022-08-01T10:28:17;2.60;;;1.60;;
62798;SDS011;48842;51.046;13.796;2022-08-01T10:30:45;1.17;;;1.10;;
62798;SDS011;48842;51.046;13.796;2022-08-01T10:33:11;1.30;;;1.20;;
62798;SDS011;48842;51.046;13.796;2022-08-01T10:35:38;1.10;;;0.90;;
62798;SDS011;48842;51.046;13.796;2022-08-01T10:38:03;1.73;;;1.33;;
62798;SDS011;48842;51.046;13.796;2022-08-01T10:40:29;4.93;;;1.13;;
62798;SDS011;48842;51.046;13.796;2022-08-01T10:42:55;2.50;;;1.20;;
62798;SDS011;48842;51.046;13.796;2022-08-01T10:45:21;3.13;;;1.00;;
62798;SDS011;48842;51.046;13.796;2022-08-01T10:47:56;1.47;;;1.13;;
62798;SDS011;48842;51.046;13.796;2022-08-01T10:50:38;0.93;;;0.93;;
62798;SDS011;48842;51.046;13.796;2022-08-01T10:55:45;2.40;;;1.53;;
62798;SDS011;48842;51.046;13.796;2022-08-01T11:01:15;2.50;;;0.90;;
62798;SDS011;48842;51.046;13.796;2022-08-01T11:09:01;0.90;;;0.80;;
62798;SDS011;48842;51.046;13.796;2022-08-01T11:11:26;1.37;;;0.60;;
62798;SDS011;48842;51.046;13.796;2022-08-01T11:16:26;3.03;;;1.00;;
62798;SDS011;48842;51.046;13.796;2022-08-01T11:18:52;11.63;;;1.00;;
62798;SDS011;48842;51.046;13.796;2022-08-01T11:21:18;7.73;;;0.77;;
62798;SDS011;48842;51.046;13.796;2022-08-01T11:23:47;0.60;;;0.60;;
62798;SDS011;48842;51.046;13.796;2022-08-01T11:26:13;1.47;;;0.80;;
62798;SDS011;48842;51.046;13.796;2022-08-01T11:28:40;5.00;;;0.90;;
62798;SDS011;48842;51.046;13.796;2022-08-01T11:41:20;1.93;;;0.50;;
62798;SDS011;48842;51.046;13.796;2022-08-01T11:43:58;3.43;;;0.60;;
62798;SDS011;48842;51.046;13.796;2022-08-01T11:49:31;1.43;;;0.90;;
62798;SDS011;48842;51.046;13.796;2022-08-01T11:52:02;0.80;;;0.70;;
62798;SDS011;48842;51.046;13.796;2022-08-01T11:54:45;0.90;;;0.60;;
62798;SDS011;48842;51.046;13.796;2022-08-01T11:57:31;8.00;;;0.90;;
62798;SDS011;48842;51.046;13.796;2022-08-01T12:00:00;9.20;;;1.60;;
62798;SDS011;48842;51.046;13.796;2022-08-01T12:02:28;5.40;;;1.00;;
62798;SDS011;48842;51.046;13.796;2022-08-01T12:05:11;11.33;;;0.83;;
62798;SDS011;48842;51.046;13.796;2022-08-01T12:07:39;1.73;;;0.93;;
62798;SDS011;48842;51.046;13.796;2022-08-01T12:10:07;1.20;;;1.10;;
62798;SDS011;48842;51.046;13.796;2022-08-01T12:12:37;4.00;;;0.90;;
62798;SDS011;48842;51.046;13.796;2022-08-01T12:15:10;1.00;;;1.00;;
62798;SDS011;48842;51.046;13.796;2022-08-01T12:17:36;4.77;;;1.27;;
62798;SDS011;48842;51.046;13.796;2022-08-01T12:20:09;2.10;;;1.03;;
62798;SDS011;48842;51.046;13.796;2022-08-01T12:22:36;2.73;;;0.87;;
62798;SDS011;48842;51.046;13.796;2022-08-01T12:25:20;1.10;;;0.80;;
62798;SDS011;48842;51.046;13.796;2022-08-01T12:27:46;2.40;;;0.90;;
62798;SDS011;48842;51.046;13.796;2022-08-01T12:30:19;2.10;;;1.20;;
62798;SDS011;48842;51.046;13.796;2022-08-01T12:32:50;3.73;;;0.80;;
62798;SDS011;48842;51.046;13.796;2022-08-01T12:35:17;1.80;;;1.00;;
62798;SDS011;48842;51.046;13.796;2022-08-01T12:37:51;3.97;;;0.90;;
62798;SDS011;48842;51.046;13.796;2022-08-01T12:42:45;2.93;;;0.80;;
62798;SDS011;48842;51.046;13.796;2022-08-01T12:45:17;0.87;;;0.80;;
62798;SDS011;48842;51.046;13.796;2022-08-01T12:47:45;1.90;;;0.87;;
62798;SDS011;48842;51.046;13.796;2022-08-01T12:50:12;4.90;;;0.70;;
62798;SDS011;48842;51.046;13.796;2022-08-01T12:52:43;3.40;;;0.83;;
62798;SDS011;48842;51.046;13.796;2022-08-01T12:55:11;2.10;;;0.80;;
62798;SDS011;48842;51.046;13.796;2022-08-01T12:57:39;2.50;;;0.73;;
62798;SDS011;48842;51.046;13.796;2022-08-01T13:00:23;0.83;;;0.80;;
62798;SDS011;48842;51.046;13.796;2022-08-01T13:02:50;2.90;;;0.80;;
62798;SDS011;48842;51.046;13.796;2022-08-01T13:05:27;0.77;;;0.77;;
62798;SDS011;48842;51.046;13.796;2022-08-01T13:07:52;6.90;;;0.90;;
62798;SDS011;48842;51.046;13.796;2022-08-01T13:10:25;4.30;;;0.80;;
62798;SDS011;48842;51.046;13.796;2022-08-01T13:12:53;4.40;;;1.10;;
62798;SDS011;48842;51.046;13.796;2022-08-01T13:15:21;2.10;;;0.60;;
62798;SDS011;48842;51.046;13.796;2022-08-01T13:17:52;2.03;;;0.70;;
62798;SDS011;48842;51.046;13.796;2022-08-01T13:20:25;1.67;;;1.40;;
62798;SDS011;48842;51.046;13.796;2022-08-01T13:22:53;5.90;;;0.83;;
62798;SDS011;48842;51.046;13.796;2022-08-01T13:25:18;1.07;;;0.70;;
62798;SDS011;48842;51.046;13.796;2022-08-01T13:27:44;6.77;;;0.80;;
62798;SDS011;48842;51.046;13.796;2022-08-01T13:30:10;1.10;;;0.77;;
62798;SDS011;48842;51.046;13.796;2022-08-01T13:32:36;0.70;;;0.60;;
62798;SDS011;48842;51.046;13.796;2022-08-01T13:35:03;0.60;;;0.60;;
62798;SDS011;48842;51.046;13.796;2022-08-01T13:37:29;0.80;;;0.57;;
62798;SDS011;48842;51.046;13.796;2022-08-01T13:39:54;1.67;;;0.53;;
62798;SDS011;48842;51.046;13.796;2022-08-01T13:42:20;11.80;;;0.70;;
62798;SDS011;48842;51.046;13.796;2022-08-01T13:44:45;0.83;;;0.60;;
62798;SDS011;48842;51.046;13.796;2022-08-01T13:47:10;1.63;;;0.70;;
62798;SDS011;48842;51.046;13.796;2022-08-01T13:49:36;1.87;;;0.60;;
62798;SDS011;48842;51.046;13.796;2022-08-01T13:52:01;2.60;;;0.90;;
62798;SDS011;48842;51.046;13.796;2022-08-01T13:54:27;2.13;;;0.60;;
62798;SDS011;48842;51.046;13.796;2022-08-01T13:56:52;3.20;;;0.60;;
62798;SDS011;48842;51.046;13.796;2022-08-01T13:59:18;2.40;;;0.50;;
62798;SDS011;48842;51.046;13.796;2022-08-01T14:01:44;3.20;;;0.60;;
62798;SDS011;48842;51.046;13.796;2022-08-01T14:04:09;0.87;;;0.50;;
62798;SDS011;48842;51.046;13.796;2022-08-01T14:06:35;0.70;;;0.50;;
62798;SDS011;48842;51.046;13.796;2022-08-01T14:09:00;0.80;;;0.50;;
62798;SDS011;48842;51.046;13.796;2022-08-01T14:11:26;0.70;;;0.60;;
62798;SDS011;48842;51.046;13.796;2022-08-01T14:13:52;4.90;;;0.63;;
62798;SDS011;48842;51.046;13.796;2022-08-01T14:16:17;2.37;;;0.50;;
62798;SDS011;48842;51.046;13.796;2022-08-01T14:18:43;0.50;;;0.50;;
62798;SDS011;48842;51.046;13.796;2022-08-01T14:21:08;0.80;;;0.50;;
62798;SDS011;48842;51.046;13.796;2022-08-01T14:23:33;1.13;;;0.60;;
62798;SDS011;48842;51.046;13.796;2022-08-01T14:25:58;1.73;;;0.50;;
62798;SDS011;48842;51.046;13.796;2022-08-01T14:28:24;1.00;;;0.60;;
62798;SDS011;48842;51.046;13.796;2022-08-01T14:30:50;1.00;;;0.70;;
62798;SDS011;48842;51.046;13.796;2022-08-01T14:33:15;1.63;;;0.50;;
62798;SDS011;48842;51.046;13.796;2022-08-01T14:35:40;0.87;;;0.60;;
62798;SDS011;48842;51.046;13.796;2022-08-01T14:38:06;1.80;;;0.40;;
62798;SDS011;48842;51.046;13.796;2022-08-01T14:40:32;0.80;;;0.60;;
62798;SDS011;48842;51.046;13.796;2022-08-01T14:42:58;2.13;;;0.47;;
62798;SDS011;48842;51.046;13.796;2022-08-01T14:45:25;0.50;;;0.40;;
62798;SDS011;48842;51.046;13.796;2022-08-01T14:47:51;1.33;;;0.67;;
62798;SDS011;48842;51.046;13.796;2022-08-01T14:50:16;8.60;;;0.63;;
62798;SDS011;48842;51.046;13.796;2022-08-01T14:52:42;2.93;;;0.80;;
62798;SDS011;48842;51.046;13.796;2022-08-01T14:55:08;2.27;;;0.70;;
62798;SDS011;48842;51.046;13.796;2022-08-01T14:57:34;2.37;;;0.70;;
62798;SDS011;48842;51.046;13.796;2022-08-01T15:00:00;1.37;;;0.90;;
62798;SDS011;48842;51.046;13.796;2022-08-01T15:02:27;2.43;;;0.83;;
62798;SDS011;48842;51.046;13.796;2022-08-01T15:04:55;2.00;;;0.70;;
62798;SDS011;48842;51.046;13.796;2022-08-01T15:07:20;2.60;;;0.70;;
62798;SDS011;48842;51.046;13.796;2022-08-01T15:09:45;0.70;;;0.70;;
62798;SDS011;48842;51.046;13.796;2022-08-01T15:12:11;8.87;;;0.87;;
62798;SDS011;48842;51.046;13.796;2022-08-01T15:14:37;1.17;;;0.70;;
62798;SDS011;48842;51.046;13.796;2022-08-01T15:19:48;5.00;;;0.83;;
62798;SDS011;48842;51.046;13.796;2022-08-01T15:22:15;0.70;;;0.70;;
62798;SDS011;48842;51.046;13.796;2022-08-01T15:24:41;0.70;;;0.70;;
62798;SDS011;48842;51.046;13.796;2022-08-01T15:27:07;0.80;;;0.73;;